sensor_id;sensor_type;location;lat;lon;timestamp;temperature;humidity
23100;DHT22;53791;50.696;4.396;2023-06-22T00:01:47;21.60;99.90
23100;DHT22;53791;50.696;4.396;2023-06-22T00:04:15;21.60;99.90
23100;DHT22;53791;50.696;4.396;2023-06-22T00:06:42;21.60;99.90
23100;DHT22;53791;50.696;4.396;2023-06-22T00:09:10;21.70;99.90
23100;DHT22;53791;50.696;4.396;2023-06-22T00:11:38;21.70;99.90
23100;DHT22;53791;50.696;4.396;2023-06-22T00:14:05;21.70;99.90
23100;DHT22;53791;50.696;4.396;2023-06-22T00:16:33;21.60;99.90
23100;DHT22;53791;50.696;4.396;2023-06-22T00:19:00;21.60;99.90
23100;DHT22;53791;50.696;4.396;2023-06-22T00:21:35;21.60;99.90
23100;DHT22;53791;50.696;4.396;2023-06-22T00:24:05;21.50;99.90
23100;DHT22;53791;50.696;4.396;2023-06-22T00:26:38;21.30;99.90
23100;DHT22;53791;50.696;4.396;2023-06-22T00:29:06;21.30;99.90
23100;DHT22;53791;50.696;4.396;2023-06-22T00:31:33;21.40;99.90
23100;DHT22;53791;50.696;4.396;2023-06-22T00:34:01;21.40;99.90
23100;DHT22;53791;50.696;4.396;2023-06-22T00:36:28;21.40;99.90
23100;DHT22;53791;50.696;4.396;2023-06-22T00:38:59;21.40;99.90
23100;DHT22;53791;50.696;4.396;2023-06-22T00:41:25;21.40;99.90
23100;DHT22;53791;50.696;4.396;2023-06-22T00:43:54;21.40;99.90
23100;DHT22;53791;50.696;4.396;2023-06-22T00:46:23;21.40;99.90
23100;DHT22;53791;50.696;4.396;2023-06-22T00:48:52;21.40;99.90
23100;DHT22;53791;50.696;4.396;2023-06-22T00:51:21;21.40;99.90
23100;DHT22;53791;50.696;4.396;2023-06-22T00:53:54;21.40;99.90
23100;DHT22;53791;50.696;4.396;2023-06-22T00:56:20;21.50;99.90
23100;DHT22;53791;50.696;4.396;2023-06-22T00:58:50;21.50;99.90
23100;DHT22;53791;50.696;4.396;2023-06-22T01:01:19;21.50;99.90
23100;DHT22;53791;50.696;4.396;2023-06-22T01:03:50;21.50;99.90
23100;DHT22;53791;50.696;4.396;2023-06-22T01:06:21;21.40;99.90
23100;DHT22;53791;50.696;4.396;2023-06-22T01:08:54;21.30;99.90
23100;DHT22;53791;50.696;4.396;2023-06-22T01:11:27;21.40;99.90
23100;DHT22;53791;50.696;4.396;2023-06-22T01:14:20;21.40;99.90
23100;DHT22;53791;50.696;4.396;2023-06-22T01:16:49;21.40;99.90
23100;DHT22;53791;50.696;4.396;2023-06-22T01:19:43;21.40;99.90
23100;DHT22;53791;50.696;4.396;2023-06-22T01:22:08;21.40;99.90
23100;DHT22;53791;50.696;4.396;2023-06-22T01:27:56;21.40;99.90
23100;DHT22;53791;50.696;4.396;2023-06-22T01:30:11;21.40;99.90
23100;DHT22;53791;50.696;4.396;2023-06-22T01:32:43;21.30;99.90
23100;DHT22;53791;50.696;4.396;2023-06-22T01:35:11;21.30;99.90
23100;DHT22;53791;50.696;4.396;2023-06-22T01:37:45;21.30;99.90
23100;DHT22;53791;50.696;4.396;2023-06-22T01:40:14;21.20;99.90
23100;DHT22;53791;50.696;4.396;2023-06-22T01:42:43;21.20;99.90
23100;DHT22;53791;50.696;4.396;2023-06-22T01:45:11;21.30;99.90
23100;DHT22;53791;50.696;4.396;2023-06-22T01:47:39;21.30;99.90
23100;DHT22;53791;50.696;4.396;2023-06-22T01:50:08;21.20;99.90
23100;DHT22;53791;50.696;4.396;2023-06-22T01:52:36;21.20;99.90
23100;DHT22;53791;50.696;4.396;2023-06-22T01:55:04;21.10;99.90
23100;DHT22;53791;50.696;4.396;2023-06-22T01:57:33;21.10;99.90
23100;DHT22;53791;50.696;4.396;2023-06-22T02:00:09;21.00;99.90
23100;DHT22;53791;50.696;4.396;2023-06-22T02:02:40;20.90;99.90
23100;DHT22;53791;50.696;4.396;2023-06-22T02:05:09;21.00;99.90
23100;DHT22;53791;50.696;4.396;2023-06-22T02:07:41;20.90;99.90
23100;DHT22;53791;50.696;4.396;2023-06-22T02:10:09;21.00;99.90
23100;DHT22;53791;50.696;4.396;2023-06-22T02:12:39;21.00;99.90
23100;DHT22;53791;50.696;4.396;2023-06-22T02:15:10;20.90;99.90
23100;DHT22;53791;50.696;4.396;2023-06-22T02:17:39;20.90;99.90
23100;DHT22;53791;50.696;4.396;2023-06-22T02:20:16;20.90;99.90
23100;DHT22;53791;50.696;4.396;2023-06-22T02:22:44;20.90;99.90
23100;DHT22;53791;50.696;4.396;2023-06-22T02:25:11;20.90;99.90
23100;DHT22;53791;50.696;4.396;2023-06-22T02:27:39;20.90;99.90
23100;DHT22;53791;50.696;4.396;2023-06-22T02:30:09;20.80;99.90
23100;DHT22;53791;50.696;4.396;2023-06-22T02:32:46;20.80;99.90
23100;DHT22;53791;50.696;4.396;2023-06-22T02:35:13;20.80;99.90
23100;DHT22;53791;50.696;4.396;2023-06-22T02:37:41;20.80;99.90
23100;DHT22;53791;50.696;4.396;2023-06-22T02:40:11;20.80;99.90
23100;DHT22;53791;50.696;4.396;2023-06-22T02:42:40;20.80;99.90
23100;DHT22;53791;50.696;4.396;2023-06-22T02:45:08;20.80;99.90
23100;DHT22;53791;50.696;4.396;2023-06-22T02:47:35;20.90;99.90
23100;DHT22;53791;50.696;4.396;2023-06-22T02:50:03;20.90;99.90
23100;DHT22;53791;50.696;4.396;2023-06-22T02:52:30;20.80;99.90
23100;DHT22;53791;50.696;4.396;2023-06-22T02:55:10;21.00;99.90
23100;DHT22;53791;50.696;4.396;2023-06-22T02:57:43;20.90;99.90
23100;DHT22;53791;50.696;4.396;2023-06-22T03:00:13;20.90;99.90
23100;DHT22;53791;50.696;4.396;2023-06-22T03:02:48;20.90;99.90
23100;DHT22;53791;50.696;4.396;2023-06-22T03:05:16;20.90;99.90
23100;DHT22;53791;50.696;4.396;2023-06-22T03:07:45;20.90;99.90
23100;DHT22;53791;50.696;4.396;2023-06-22T03:10:14;20.80;99.90
23100;DHT22;53791;50.696;4.396;2023-06-22T03:12:42;20.80;99.90
23100;DHT22;53791;50.696;4.396;2023-06-22T03:15:12;20.80;99.90
23100;DHT22;53791;50.696;4.396;2023-06-22T03:17:40;20.70;99.90
23100;DHT22;53791;50.696;4.396;2023-06-22T03:20:08;20.70;99.90
23100;DHT22;53791;50.696;4.396;2023-06-22T03:22:41;20.80;99.90
23100;DHT22;53791;50.696;4.396;2023-06-22T03:25:10;20.80;99.90
23100;DHT22;53791;50.696;4.396;2023-06-22T03:27:39;20.80;99.90
23100;DHT22;53791;50.696;4.396;2023-06-22T03:30:08;20.80;99.90
23100;DHT22;53791;50.696;4.396;2023-06-22T03:32:36;20.80;99.90
23100;DHT22;53791;50.696;4.396;2023-06-22T03:35:04;20.80;99.90
23100;DHT22;53791;50.696;4.396;2023-06-22T03:37:32;20.80;99.90
23100;DHT22;53791;50.696;4.396;2023-06-22T03:40:00;20.80;99.90
23100;DHT22;53791;50.696;4.396;2023-06-22T03:42:27;20.80;99.90
23100;DHT22;53791;50.696;4.396;2023-06-22T03:44:55;20.90;99.90
23100;DHT22;53791;50.696;4.396;2023-06-22T03:47:22;20.80;99.90
23100;DHT22;53791;50.696;4.396;2023-06-22T03:49:50;20.90;99.90
23100;DHT22;53791;50.696;4.396;2023-06-22T03:52:19;20.90;99.90
23100;DHT22;53791;50.696;4.396;2023-06-22T03:54:47;20.90;99.90
23100;DHT22;53791;50.696;4.396;2023-06-22T03:57:14;20.80;99.90
23100;DHT22;53791;50.696;4.396;2023-06-22T03:59:42;20.80;99.90
23100;DHT22;53791;50.696;4.396;2023-06-22T04:02:09;20.70;99.90
23100;DHT22;53791;50.696;4.396;2023-06-22T04:04:37;20.70;99.90
23100;DHT22;53791;50.696;4.396;2023-06-22T04:07:05;20.70;99.90
23100;DHT22;53791;50.696;4.396;2023-06-22T04:09:33;20.50;99.90
23100;DHT22;53791;50.696;4.396;2023-06-22T04:12:03;20.60;99.90
23100;DHT22;53791;50.696;4.396;2023-06-22T04:14:31;20.60;99.90
23100;DHT22;53791;50.696;4.396;2023-06-22T04:16:59;20.50;99.90
23100;DHT22;53791;50.696;4.396;2023-06-22T04:19:26;20.60;99.90
23100;DHT22;53791;50.696;4.396;2023-06-22T04:21:54;20.60;99.90
23100;DHT22;53791;50.696;4.396;2023-06-22T04:24:25;20.60;99.90
23100;DHT22;53791;50.696;4.396;2023-06-22T04:26:52;20.60;99.90
23100;DHT22;53791;50.696;4.396;2023-06-22T04:29:25;20.50;99.90
23100;DHT22;53791;50.696;4.396;2023-06-22T04:31:55;20.50;99.90
23100;DHT22;53791;50.696;4.396;2023-06-22T04:34:25;20.40;99.90
23100;DHT22;53791;50.696;4.396;2023-06-22T04:36:56;20.40;99.90
23100;DHT22;53791;50.696;4.396;2023-06-22T04:39:24;20.40;99.90
23100;DHT22;53791;50.696;4.396;2023-06-22T04:41:53;20.30;99.90
23100;DHT22;53791;50.696;4.396;2023-06-22T04:44:22;20.30;99.90
23100;DHT22;53791;50.696;4.396;2023-06-22T04:46:54;20.30;99.90
23100;DHT22;53791;50.696;4.396;2023-06-22T04:49:23;20.30;99.90
23100;DHT22;53791;50.696;4.396;2023-06-22T04:51:52;20.30;99.90
23100;DHT22;53791;50.696;4.396;2023-06-22T04:54:21;20.20;99.90
23100;DHT22;53791;50.696;4.396;2023-06-22T04:56:49;20.20;99.90
23100;DHT22;53791;50.696;4.396;2023-06-22T04:59:18;20.20;99.90
23100;DHT22;53791;50.696;4.396;2023-06-22T05:01:45;20.20;99.90
23100;DHT22;53791;50.696;4.396;2023-06-22T05:04:13;20.20;99.90
23100;DHT22;53791;50.696;4.396;2023-06-22T05:06:40;20.20;99.90
23100;DHT22;53791;50.696;4.396;2023-06-22T05:09:08;20.20;99.90
23100;DHT22;53791;50.696;4.396;2023-06-22T05:11:36;20.20;99.90
23100;DHT22;53791;50.696;4.396;2023-06-22T05:14:03;20.20;99.90
23100;DHT22;53791;50.696;4.396;2023-06-22T05:16:31;20.20;99.90
23100;DHT22;53791;50.696;4.396;2023-06-22T05:18:59;20.20;99.90
23100;DHT22;53791;50.696;4.396;2023-06-22T05:21:27;20.20;99.90
23100;DHT22;53791;50.696;4.396;2023-06-22T05:23:55;20.20;99.90
23100;DHT22;53791;50.696;4.396;2023-06-22T05:26:24;20.20;99.90
23100;DHT22;53791;50.696;4.396;2023-06-22T05:28:52;20.30;99.90
23100;DHT22;53791;50.696;4.396;2023-06-22T05:31:22;20.20;99.90
23100;DHT22;53791;50.696;4.396;2023-06-22T05:33:52;20.30;99.90
23100;DHT22;53791;50.696;4.396;2023-06-22T05:36:20;20.30;99.90
23100;DHT22;53791;50.696;4.396;2023-06-22T05:38:50;20.30;99.90
23100;DHT22;53791;50.696;4.396;2023-06-22T05:41:18;20.30;99.90
23100;DHT22;53791;50.696;4.396;2023-06-22T05:43:45;20.40;99.90
23100;DHT22;53791;50.696;4.396;2023-06-22T05:46:13;20.30;99.90
23100;DHT22;53791;50.696;4.396;2023-06-22T05:48:40;20.40;99.90
23100;DHT22;53791;50.696;4.396;2023-06-22T05:51:08;20.40;99.90
23100;DHT22;53791;50.696;4.396;2023-06-22T05:53:36;20.30;99.90
23100;DHT22;53791;50.696;4.396;2023-06-22T05:56:05;20.20;99.90
23100;DHT22;53791;50.696;4.396;2023-06-22T05:58:32;20.20;99.90
23100;DHT22;53791;50.696;4.396;2023-06-22T06:01:00;20.30;99.90
23100;DHT22;53791;50.696;4.396;2023-06-22T06:03:27;20.40;99.90
23100;DHT22;53791;50.696;4.396;2023-06-22T06:05:55;20.50;99.90
23100;DHT22;53791;50.696;4.396;2023-06-22T06:08:24;20.50;99.90
23100;DHT22;53791;50.696;4.396;2023-06-22T06:10:52;20.60;99.90
23100;DHT22;53791;50.696;4.396;2023-06-22T06:13:21;20.60;99.90
23100;DHT22;53791;50.696;4.396;2023-06-22T06:15:48;20.60;99.90
23100;DHT22;53791;50.696;4.396;2023-06-22T06:18:17;20.70;99.90
23100;DHT22;53791;50.696;4.396;2023-06-22T06:20:45;20.60;99.90
23100;DHT22;53791;50.696;4.396;2023-06-22T06:23:12;20.70;99.90
23100;DHT22;53791;50.696;4.396;2023-06-22T06:25:40;20.80;99.90
23100;DHT22;53791;50.696;4.396;2023-06-22T06:28:08;20.80;99.90
23100;DHT22;53791;50.696;4.396;2023-06-22T06:30:35;20.80;99.90
23100;DHT22;53791;50.696;4.396;2023-06-22T06:33:03;20.80;99.90
23100;DHT22;53791;50.696;4.396;2023-06-22T06:35:32;20.80;99.90
23100;DHT22;53791;50.696;4.396;2023-06-22T06:38:00;20.90;99.90
23100;DHT22;53791;50.696;4.396;2023-06-22T06:40:28;20.80;99.90
23100;DHT22;53791;50.696;4.396;2023-06-22T06:42:56;20.80;99.90
23100;DHT22;53791;50.696;4.396;2023-06-22T06:45:24;20.70;99.90
23100;DHT22;53791;50.696;4.396;2023-06-22T06:47:53;20.70;99.90
23100;DHT22;53791;50.696;4.396;2023-06-22T06:50:21;20.80;99.90
23100;DHT22;53791;50.696;4.396;2023-06-22T06:52:48;20.90;99.90
23100;DHT22;53791;50.696;4.396;2023-06-22T06:55:17;20.90;99.90
23100;DHT22;53791;50.696;4.396;2023-06-22T06:57:46;21.00;99.90
23100;DHT22;53791;50.696;4.396;2023-06-22T07:00:15;21.00;99.90
23100;DHT22;53791;50.696;4.396;2023-06-22T07:02:44;21.00;99.90
23100;DHT22;53791;50.696;4.396;2023-06-22T07:05:13;20.90;99.90
23100;DHT22;53791;50.696;4.396;2023-06-22T07:07:41;21.10;99.90
23100;DHT22;53791;50.696;4.396;2023-06-22T07:10:09;21.20;99.90
23100;DHT22;53791;50.696;4.396;2023-06-22T07:12:37;21.30;99.90
23100;DHT22;53791;50.696;4.396;2023-06-22T07:15:07;21.40;99.90
23100;DHT22;53791;50.696;4.396;2023-06-22T07:17:39;21.40;99.90
23100;DHT22;53791;50.696;4.396;2023-06-22T07:20:10;21.50;99.90
23100;DHT22;53791;50.696;4.396;2023-06-22T07:22:39;21.60;99.90
23100;DHT22;53791;50.696;4.396;2023-06-22T07:25:07;21.60;99.90
23100;DHT22;53791;50.696;4.396;2023-06-22T07:27:43;21.50;99.90
23100;DHT22;53791;50.696;4.396;2023-06-22T07:30:10;21.60;99.90
23100;DHT22;53791;50.696;4.396;2023-06-22T07:32:48;21.60;99.90
23100;DHT22;53791;50.696;4.396;2023-06-22T07:35:18;21.60;99.90
23100;DHT22;53791;50.696;4.396;2023-06-22T07:37:46;21.70;99.90
23100;DHT22;53791;50.696;4.396;2023-06-22T07:40:14;21.60;99.90
23100;DHT22;53791;50.696;4.396;2023-06-22T07:42:42;21.60;99.90
23100;DHT22;53791;50.696;4.396;2023-06-22T07:45:09;21.50;99.90
23100;DHT22;53791;50.696;4.396;2023-06-22T07:47:37;21.50;99.90
23100;DHT22;53791;50.696;4.396;2023-06-22T07:50:05;21.60;99.90
23100;DHT22;53791;50.696;4.396;2023-06-22T07:52:33;21.50;99.90
23100;DHT22;53791;50.696;4.396;2023-06-22T07:55:01;21.50;99.90
23100;DHT22;53791;50.696;4.396;2023-06-22T07:57:30;21.50;99.90
23100;DHT22;53791;50.696;4.396;2023-06-22T08:00:01;21.40;99.90
23100;DHT22;53791;50.696;4.396;2023-06-22T08:02:31;21.40;99.90
23100;DHT22;53791;50.696;4.396;2023-06-22T08:04:59;21.40;99.90
23100;DHT22;53791;50.696;4.396;2023-06-22T08:07:26;21.40;99.90
23100;DHT22;53791;50.696;4.396;2023-06-22T08:09:54;21.50;99.90
23100;DHT22;53791;50.696;4.396;2023-06-22T08:12:21;21.50;99.90
23100;DHT22;53791;50.696;4.396;2023-06-22T08:14:49;21.40;99.90
23100;DHT22;53791;50.696;4.396;2023-06-22T08:17:16;21.40;99.90
23100;DHT22;53791;50.696;4.396;2023-06-22T08:19:44;21.40;99.90
23100;DHT22;53791;50.696;4.396;2023-06-22T08:22:11;21.40;99.90
23100;DHT22;53791;50.696;4.396;2023-06-22T08:24:39;21.40;99.90
23100;DHT22;53791;50.696;4.396;2023-06-22T08:27:07;21.40;99.90
23100;DHT22;53791;50.696;4.396;2023-06-22T08:29:45;21.40;99.90
23100;DHT22;53791;50.696;4.396;2023-06-22T08:32:13;21.40;99.90
23100;DHT22;53791;50.696;4.396;2023-06-22T08:34:40;21.40;99.90
23100;DHT22;53791;50.696;4.396;2023-06-22T08:37:09;21.40;99.90
23100;DHT22;53791;50.696;4.396;2023-06-22T08:39:37;21.40;99.90
23100;DHT22;53791;50.696;4.396;2023-06-22T08:42:07;21.40;99.90
23100;DHT22;53791;50.696;4.396;2023-06-22T08:44:35;21.40;99.90
23100;DHT22;53791;50.696;4.396;2023-06-22T08:47:02;21.50;99.90
23100;DHT22;53791;50.696;4.396;2023-06-22T08:49:30;21.40;99.90
23100;DHT22;53791;50.696;4.396;2023-06-22T08:51:57;21.40;99.90
23100;DHT22;53791;50.696;4.396;2023-06-22T08:54:25;21.40;99.90
23100;DHT22;53791;50.696;4.396;2023-06-22T08:56:52;21.40;99.90
23100;DHT22;53791;50.696;4.396;2023-06-22T08:59:20;21.40;99.90
23100;DHT22;53791;50.696;4.396;2023-06-22T09:01:47;21.50;99.90
23100;DHT22;53791;50.696;4.396;2023-06-22T09:04:15;21.50;99.90
23100;DHT22;53791;50.696;4.396;2023-06-22T09:06:42;21.50;99.90
23100;DHT22;53791;50.696;4.396;2023-06-22T09:09:16;21.50;99.90
23100;DHT22;53791;50.696;4.396;2023-06-22T09:11:44;21.40;99.90
23100;DHT22;53791;50.696;4.396;2023-06-22T09:14:11;21.40;99.90
23100;DHT22;53791;50.696;4.396;2023-06-22T09:16:39;21.40;99.90
23100;DHT22;53791;50.696;4.396;2023-06-22T09:19:07;21.40;99.90
23100;DHT22;53791;50.696;4.396;2023-06-22T09:21:34;21.40;99.90
23100;DHT22;53791;50.696;4.396;2023-06-22T09:24:02;21.30;99.90
23100;DHT22;53791;50.696;4.396;2023-06-22T09:26:30;21.30;99.90
23100;DHT22;53791;50.696;4.396;2023-06-22T09:28:59;21.20;99.90
23100;DHT22;53791;50.696;4.396;2023-06-22T09:31:29;21.20;99.90
23100;DHT22;53791;50.696;4.396;2023-06-22T09:33:55;21.20;99.90
23100;DHT22;53791;50.696;4.396;2023-06-22T09:36:23;21.10;99.90
23100;DHT22;53791;50.696;4.396;2023-06-22T09:38:51;21.00;99.90
23100;DHT22;53791;50.696;4.396;2023-06-22T09:41:20;20.90;99.90
23100;DHT22;53791;50.696;4.396;2023-06-22T09:43:48;20.80;99.90
23100;DHT22;53791;50.696;4.396;2023-06-22T09:46:17;20.70;99.90
23100;DHT22;53791;50.696;4.396;2023-06-22T09:48:47;20.60;99.90
23100;DHT22;53791;50.696;4.396;2023-06-22T09:51:15;20.80;99.90
23100;DHT22;53791;50.696;4.396;2023-06-22T09:53:43;21.00;99.90
23100;DHT22;53791;50.696;4.396;2023-06-22T09:56:10;21.00;99.90
23100;DHT22;53791;50.696;4.396;2023-06-22T09:58:39;20.80;99.90
23100;DHT22;53791;50.696;4.396;2023-06-22T10:01:07;20.60;99.90
23100;DHT22;53791;50.696;4.396;2023-06-22T10:03:35;20.40;99.90
23100;DHT22;53791;50.696;4.396;2023-06-22T10:06:02;20.20;99.90
23100;DHT22;53791;50.696;4.396;2023-06-22T10:08:30;20.20;99.90
23100;DHT22;53791;50.696;4.396;2023-06-22T10:10:58;20.00;99.90
23100;DHT22;53791;50.696;4.396;2023-06-22T10:13:25;19.90;99.90
23100;DHT22;53791;50.696;4.396;2023-06-22T10:15:53;19.80;99.90
23100;DHT22;53791;50.696;4.396;2023-06-22T10:18:22;19.80;99.90
23100;DHT22;53791;50.696;4.396;2023-06-22T10:20:52;19.70;99.90
23100;DHT22;53791;50.696;4.396;2023-06-22T10:23:20;19.70;99.90
23100;DHT22;53791;50.696;4.396;2023-06-22T10:25:48;19.60;99.90
23100;DHT22;53791;50.696;4.396;2023-06-22T10:28:15;19.50;99.90
23100;DHT22;53791;50.696;4.396;2023-06-22T10:30:43;19.40;99.90
23100;DHT22;53791;50.696;4.396;2023-06-22T10:33:22;19.30;99.90
23100;DHT22;53791;50.696;4.396;2023-06-22T10:35:50;19.30;99.90
23100;DHT22;53791;50.696;4.396;2023-06-22T10:38:17;19.20;99.90
23100;DHT22;53791;50.696;4.396;2023-06-22T10:40:45;19.20;99.90
23100;DHT22;53791;50.696;4.396;2023-06-22T10:43:13;19.10;99.90
23100;DHT22;53791;50.696;4.396;2023-06-22T10:45:42;19.10;99.90
23100;DHT22;53791;50.696;4.396;2023-06-22T10:48:10;19.10;99.90
23100;DHT22;53791;50.696;4.396;2023-06-22T10:53:11;19.10;99.90
23100;DHT22;53791;50.696;4.396;2023-06-22T10:55:38;19.10;99.90
23100;DHT22;53791;50.696;4.396;2023-06-22T10:58:06;19.10;99.90
23100;DHT22;53791;50.696;4.396;2023-06-22T11:00:33;19.10;99.90
23100;DHT22;53791;50.696;4.396;2023-06-22T11:03:01;19.20;99.90
23100;DHT22;53791;50.696;4.396;2023-06-22T11:05:29;19.30;99.90
23100;DHT22;53791;50.696;4.396;2023-06-22T11:07:56;19.20;99.90
23100;DHT22;53791;50.696;4.396;2023-06-22T11:10:24;19.30;99.90
23100;DHT22;53791;50.696;4.396;2023-06-22T11:12:52;19.20;99.90
23100;DHT22;53791;50.696;4.396;2023-06-22T11:15:21;19.20;99.90
23100;DHT22;53791;50.696;4.396;2023-06-22T11:17:49;19.10;99.90
23100;DHT22;53791;50.696;4.396;2023-06-22T11:20:16;19.10;99.90
23100;DHT22;53791;50.696;4.396;2023-06-22T11:22:44;19.20;99.90
23100;DHT22;53791;50.696;4.396;2023-06-22T11:25:11;19.30;99.90
23100;DHT22;53791;50.696;4.396;2023-06-22T11:27:39;19.40;99.90
23100;DHT22;53791;50.696;4.396;2023-06-22T11:30:07;19.30;99.90
23100;DHT22;53791;50.696;4.396;2023-06-22T11:32:35;19.20;99.90
23100;DHT22;53791;50.696;4.396;2023-06-22T11:35:03;19.20;99.90
23100;DHT22;53791;50.696;4.396;2023-06-22T11:37:31;19.30;99.90
23100;DHT22;53791;50.696;4.396;2023-06-22T11:39:58;19.20;99.90
23100;DHT22;53791;50.696;4.396;2023-06-22T11:42:26;19.10;99.90
23100;DHT22;53791;50.696;4.396;2023-06-22T11:44:54;19.10;99.90
23100;DHT22;53791;50.696;4.396;2023-06-22T11:47:24;19.20;99.90
23100;DHT22;53791;50.696;4.396;2023-06-22T11:49:52;19.30;99.90
23100;DHT22;53791;50.696;4.396;2023-06-22T11:52:19;19.30;99.90
23100;DHT22;53791;50.696;4.396;2023-06-22T11:54:47;19.20;99.90
23100;DHT22;53791;50.696;4.396;2023-06-22T11:57:14;19.30;99.90
23100;DHT22;53791;50.696;4.396;2023-06-22T11:59:42;19.30;99.90
23100;DHT22;53791;50.696;4.396;2023-06-22T12:02:10;19.40;99.90
23100;DHT22;53791;50.696;4.396;2023-06-22T12:04:37;19.30;99.90
23100;DHT22;53791;50.696;4.396;2023-06-22T12:07:05;19.20;99.90
23100;DHT22;53791;50.696;4.396;2023-06-22T12:09:32;19.10;99.90
23100;DHT22;53791;50.696;4.396;2023-06-22T12:12:00;19.10;99.90
23100;DHT22;53791;50.696;4.396;2023-06-22T12:14:27;19.20;99.90
23100;DHT22;53791;50.696;4.396;2023-06-22T12:16:55;19.20;99.90
23100;DHT22;53791;50.696;4.396;2023-06-22T12:19:23;19.20;99.90
23100;DHT22;53791;50.696;4.396;2023-06-22T12:21:50;19.20;99.90
23100;DHT22;53791;50.696;4.396;2023-06-22T12:24:18;19.20;99.90
23100;DHT22;53791;50.696;4.396;2023-06-22T12:26:45;19.20;99.90
23100;DHT22;53791;50.696;4.396;2023-06-22T12:29:13;19.20;99.90
23100;DHT22;53791;50.696;4.396;2023-06-22T12:31:40;19.20;99.90
23100;DHT22;53791;50.696;4.396;2023-06-22T12:34:08;19.20;99.90
23100;DHT22;53791;50.696;4.396;2023-06-22T12:36:36;19.20;99.90
23100;DHT22;53791;50.696;4.396;2023-06-22T12:39:03;19.20;99.90
23100;DHT22;53791;50.696;4.396;2023-06-22T12:41:31;19.10;99.90
23100;DHT22;53791;50.696;4.396;2023-06-22T12:43:58;19.00;99.90
23100;DHT22;53791;50.696;4.396;2023-06-22T12:46:26;19.00;99.90
23100;DHT22;53791;50.696;4.396;2023-06-22T12:48:54;19.10;99.90
23100;DHT22;53791;50.696;4.396;2023-06-22T12:51:22;19.10;99.90
23100;DHT22;53791;50.696;4.396;2023-06-22T12:53:50;19.20;99.90
23100;DHT22;53791;50.696;4.396;2023-06-22T12:56:18;19.10;99.90
23100;DHT22;53791;50.696;4.396;2023-06-22T12:58:45;19.10;99.90
23100;DHT22;53791;50.696;4.396;2023-06-22T13:01:13;19.00;99.90
23100;DHT22;53791;50.696;4.396;2023-06-22T13:03:42;19.00;99.90
23100;DHT22;53791;50.696;4.396;2023-06-22T13:06:09;19.00;99.90
23100;DHT22;53791;50.696;4.396;2023-06-22T13:08:37;19.00;99.90
23100;DHT22;53791;50.696;4.396;2023-06-22T13:11:04;19.00;99.90
23100;DHT22;53791;50.696;4.396;2023-06-22T13:13:32;19.00;99.90
23100;DHT22;53791;50.696;4.396;2023-06-22T13:16:00;19.00;99.90
23100;DHT22;53791;50.696;4.396;2023-06-22T13:18:28;19.00;99.90
23100;DHT22;53791;50.696;4.396;2023-06-22T13:20:55;18.90;99.90
23100;DHT22;53791;50.696;4.396;2023-06-22T13:23:24;19.00;99.90
23100;DHT22;53791;50.696;4.396;2023-06-22T13:25:52;19.00;99.90
23100;DHT22;53791;50.696;4.396;2023-06-22T13:28:19;19.00;99.90
23100;DHT22;53791;50.696;4.396;2023-06-22T13:30:47;18.90;99.90
23100;DHT22;53791;50.696;4.396;2023-06-22T13:33:15;19.00;99.90
23100;DHT22;53791;50.696;4.396;2023-06-22T13:35:43;19.10;99.90
23100;DHT22;53791;50.696;4.396;2023-06-22T13:38:11;19.20;99.90
23100;DHT22;53791;50.696;4.396;2023-06-22T13:40:38;19.10;99.90
23100;DHT22;53791;50.696;4.396;2023-06-22T13:43:06;19.10;99.90
23100;DHT22;53791;50.696;4.396;2023-06-22T13:45:33;19.10;99.90
23100;DHT22;53791;50.696;4.396;2023-06-22T13:48:01;19.10;99.90
23100;DHT22;53791;50.696;4.396;2023-06-22T13:50:30;19.10;99.90
23100;DHT22;53791;50.696;4.396;2023-06-22T13:52:58;19.10;99.90
23100;DHT22;53791;50.696;4.396;2023-06-22T13:55:25;19.10;99.90
23100;DHT22;53791;50.696;4.396;2023-06-22T13:57:53;19.10;99.90
23100;DHT22;53791;50.696;4.396;2023-06-22T14:00:20;19.10;99.90
23100;DHT22;53791;50.696;4.396;2023-06-22T14:02:48;19.20;99.90
23100;DHT22;53791;50.696;4.396;2023-06-22T14:05:16;19.10;99.90
23100;DHT22;53791;50.696;4.396;2023-06-22T14:07:43;19.10;99.90
23100;DHT22;53791;50.696;4.396;2023-06-22T14:10:11;19.20;99.90
23100;DHT22;53791;50.696;4.396;2023-06-22T14:12:38;19.20;99.90
23100;DHT22;53791;50.696;4.396;2023-06-22T14:15:06;19.20;99.90
23100;DHT22;53791;50.696;4.396;2023-06-22T14:17:34;19.20;99.90
23100;DHT22;53791;50.696;4.396;2023-06-22T14:20:01;19.20;99.90
23100;DHT22;53791;50.696;4.396;2023-06-22T14:22:31;19.20;99.90
23100;DHT22;53791;50.696;4.396;2023-06-22T14:24:58;19.20;99.90
23100;DHT22;53791;50.696;4.396;2023-06-22T14:27:26;19.30;99.90
23100;DHT22;53791;50.696;4.396;2023-06-22T14:29:53;19.30;99.90
23100;DHT22;53791;50.696;4.396;2023-06-22T14:32:21;19.20;99.90
23100;DHT22;53791;50.696;4.396;2023-06-22T14:34:48;19.10;99.90
23100;DHT22;53791;50.696;4.396;2023-06-22T14:37:16;19.10;99.90
23100;DHT22;53791;50.696;4.396;2023-06-22T14:39:44;19.10;99.90
23100;DHT22;53791;50.696;4.396;2023-06-22T14:42:11;19.20;99.90
23100;DHT22;53791;50.696;4.396;2023-06-22T14:44:39;19.20;99.90
23100;DHT22;53791;50.696;4.396;2023-06-22T14:47:06;19.20;99.90
23100;DHT22;53791;50.696;4.396;2023-06-22T14:49:34;19.20;99.90
23100;DHT22;53791;50.696;4.396;2023-06-22T14:52:08;19.20;99.90
23100;DHT22;53791;50.696;4.396;2023-06-22T14:54:36;19.20;99.90
23100;DHT22;53791;50.696;4.396;2023-06-22T14:57:03;19.20;99.90
23100;DHT22;53791;50.696;4.396;2023-06-22T14:59:31;19.20;99.90
23100;DHT22;53791;50.696;4.396;2023-06-22T15:01:59;19.20;99.90
23100;DHT22;53791;50.696;4.396;2023-06-22T15:04:26;19.30;99.90
23100;DHT22;53791;50.696;4.396;2023-06-22T15:06:55;19.30;99.90
23100;DHT22;53791;50.696;4.396;2023-06-22T15:09:23;19.30;99.90
23100;DHT22;53791;50.696;4.396;2023-06-22T15:11:50;19.30;99.90
23100;DHT22;53791;50.696;4.396;2023-06-22T15:14:18;19.30;99.90
23100;DHT22;53791;50.696;4.396;2023-06-22T15:16:45;19.20;99.90
23100;DHT22;53791;50.696;4.396;2023-06-22T15:19:13;19.20;99.90
23100;DHT22;53791;50.696;4.396;2023-06-22T15:21:40;19.10;99.90
23100;DHT22;53791;50.696;4.396;2023-06-22T15:24:08;19.30;99.90
23100;DHT22;53791;50.696;4.396;2023-06-22T15:26:35;19.20;99.90
23100;DHT22;53791;50.696;4.396;2023-06-22T15:29:03;19.20;99.90
23100;DHT22;53791;50.696;4.396;2023-06-22T15:31:30;19.30;99.90
23100;DHT22;53791;50.696;4.396;2023-06-22T15:33:58;19.40;99.90
23100;DHT22;53791;50.696;4.396;2023-06-22T15:36:25;19.40;99.90
23100;DHT22;53791;50.696;4.396;2023-06-22T15:38:53;19.40;99.90
23100;DHT22;53791;50.696;4.396;2023-06-22T15:41:20;19.20;99.90
23100;DHT22;53791;50.696;4.396;2023-06-22T15:43:49;19.30;99.90